Time;durP1;ratioP1;P1;durP2;ratioP2;P2;SDS_P1;SDS_P2;PMS_P1;PMS_P2;Temp;Humidity;BMP_temperature;BMP_pressure;BME280_temperature;BME280_humidity;BME280_pressure;Samples;Min_cycle;Max_cycle;Signal;HPM_P1;HPM_P2
2023/10/16 00:05:53;;;;;;;4.67;3.47;;;7.80;81.50;;;;;;20913811;28;20204;-69
2023/10/16 00:15:57;;;;;;;4.27;3.47;;;7.80;82.40;;;;;;20913805;28;20243;-68
2023/10/16 00:25:58;;;;;;;5.17;3.63;;;7.80;82.30;;;;;;20913232;28;20212;-72
2023/10/16 00:36:00;;;;;;;3.43;3.13;;;7.80;82.70;;;;;;20912301;28;20239;-71
2023/10/16 00:46:06;;;;;;;5.33;3.50;;;7.70;82.20;;;;;;20922712;28;20291;-70
2023/10/16 00:56:12;;;;;;;5.60;3.37;;;7.60;82.70;;;;;;20928587;28;20240;-71
2023/10/16 01:06:21;;;;;;;5.07;3.40;;;7.60;82.50;;;;;;20927784;28;20211;-71
2023/10/16 01:16:23;;;;;;;6.13;3.53;;;7.50;82.30;;;;;;20927552;28;20239;-71
2023/10/16 01:26:25;;;;;;;5.90;3.80;;;7.80;83.60;;;;;;20926564;28;20204;-70
2023/10/16 01:36:27;;;;;;;5.27;3.47;;;7.20;83.60;;;;;;20925718;28;20235;-71
2023/10/16 01:46:29;;;;;;;4.47;3.77;;;7.20;84.20;;;;;;20925100;28;20611;-71
2023/10/16 01:56:31;;;;;;;6.43;3.87;;;7.10;83.70;;;;;;20923590;28;20246;-71
2023/10/16 02:06:32;;;;;;;6.27;3.70;;;7.00;83.60;;;;;;20923248;28;20742;-73
2023/10/16 02:16:37;;;;;;;6.50;3.93;;;7.00;84.20;;;;;;20922631;28;20231;-71
2023/10/16 02:26:55;;;;;;;8.07;4.00;;;6.60;83.50;;;;;;20921596;28;20207;-70
2023/10/16 02:36:57;;;;;;;6.40;4.50;;;6.50;84.10;;;;;;20920861;28;20334;-72
2023/10/16 02:46:59;;;;;;;13.93;6.07;;;6.50;84.70;;;;;;20920100;28;20268;-72
2023/10/16 02:57:02;;;;;;;12.73;5.93;;;6.50;84.80;;;;;;20919755;28;20258;-72
2023/10/16 03:07:06;;;;;;;10.57;5.50;;;6.50;85.30;;;;;;20917764;28;20258;-72
2023/10/16 03:17:08;;;;;;;8.07;5.30;;;6.50;85.60;;;;;;20917680;28;20763;-71
2023/10/16 03:27:10;;;;;;;8.37;5.03;;;6.60;86.80;;;;;;20917356;28;20291;-71
2023/10/16 03:37:14;;;;;;;11.83;5.83;;;6.60;86.70;;;;;;20916045;28;20239;-70
2023/10/16 03:47:15;;;;;;;9.67;5.47;;;6.60;87.20;;;;;;20915264;28;20306;-71
2023/10/16 03:57:20;;;;;;;9.93;7.17;;;6.80;87.60;;;;;;20853133;28;20337;-71
2023/10/16 04:07:22;;;;;;;9.50;6.37;;;6.80;88.20;;;;;;20831860;28;20207;-71
2023/10/16 04:17:26;;;;;;;12.30;6.73;;;6.80;88.00;;;;;;20831019;28;20235;-71
2023/10/16 04:27:34;;;;;;;13.83;7.47;;;6.60;88.90;;;;;;20830942;28;20208;-72
2023/10/16 04:37:36;;;;;;;9.23;6.70;;;6.60;89.60;;;;;;20830238;28;20600;-74
2023/10/16 04:58:27;;;;;;;16.70;8.03;;;6.70;89.90;;;;;;20894499;28;20830;-71
2023/10/16 05:18:43;;;;;;;17.80;8.60;;;6.80;90.50;;;;;;20911098;28;20662;-71
2023/10/16 06:20:30;;;;;;;42.87;8.93;;;6.30;91.80;;;;;;20839423;28;20602;-66
2023/10/16 06:30:37;;;;;;;52.63;8.83;;;6.10;92.20;;;;;;20838860;28;20204;-65
2023/10/16 06:40:40;;;;;;;23.20;9.67;;;6.30;92.20;;;;;;20836447;28;20236;-66
2023/10/16 06:51:26;;;;;;;19.57;9.30;;;6.40;92.10;;;;;;20843924;28;20230;-67
2023/10/16 07:01:10;;;;;;;24.40;10.17;;;6.40;92.30;;;;;;20913445;28;20233;-66
2023/10/16 07:11:13;;;;;;;42.50;10.00;;;6.40;91.80;;;;;;20917987;28;20213;-68
2023/10/16 07:21:17;;;;;;;23.37;9.27;;;6.20;92.40;;;;;;20916915;28;20320;-65
2023/10/16 07:31:21;;;;;;;20.27;9.90;;;6.10;92.60;;;;;;20916267;28;20248;-65
2023/10/16 07:41:24;;;;;;;24.73;11.40;;;6.40;92.80;;;;;;20915894;28;20237;-64
2023/10/16 07:51:25;;;;;;;22.40;11.40;;;6.40;92.90;;;;;;20914160;28;20273;-65
2023/10/16 08:01:36;;;;;;;24.17;12.23;;;6.70;93.10;;;;;;20914563;28;20241;-65
2023/10/16 08:11:44;;;;;;;33.77;13.20;;;7.00;92.90;;;;;;20913880;28;20622;-66
2023/10/16 08:21:46;;;;;;;30.37;12.23;;;7.20;92.80;;;;;;20913377;28;20242;-66
2023/10/16 08:42:18;;;;;;;12.77;8.17;;;7.10;92.30;;;;;;20912137;28;20263;-66
2023/10/16 08:52:22;;;;;;;16.53;9.90;;;7.30;92.80;;;;;;20911223;28;20243;-65
2023/10/16 09:02:25;;;;;;;13.53;9.77;;;7.30;93.40;;;;;;20913749;28;20667;-66
2023/10/16 09:12:27;;;;;;;20.90;10.23;;;7.70;93.20;;;;;;20927265;28;20234;-64
2023/10/16 09:22:29;;;;;;;16.50;8.53;;;8.10;92.60;;;;;;20926778;28;20228;-67
2023/10/16 09:32:39;;;;;;;16.53;7.63;;;8.60;92.70;;;;;;20925213;28;20324;-65
2023/10/16 09:42:45;;;;;;;21.17;7.47;;;8.90;92.40;;;;;;20925192;28;20308;-67
2023/10/16 09:52:48;;;;;;;12.63;6.93;;;8.90;92.60;;;;;;20923886;28;20250;-66
2023/10/16 10:02:53;;;;;;;10.60;7.00;;;9.10;92.40;;;;;;20923179;28;20216;-68
2023/10/16 10:13:02;;;;;;;8.83;7.10;;;9.50;92.30;;;;;;20922474;28;20574;-68
2023/10/16 10:23:08;;;;;;;17.73;10.23;;;10.00;90.70;;;;;;20904131;28;20694;-66
2023/10/16 10:33:11;;;;;;;12.80;7.40;;;10.10;91.00;;;;;;20921124;28;20268;-67
2023/10/16 10:43:49;;;;;;;15.37;7.30;;;10.70;89.90;;;;;;20920410;28;20218;-67
2023/10/16 10:53:58;;;;;;;7.07;4.87;;;10.90;89.00;;;;;;20918963;28;20706;-68
2023/10/16 11:04:01;;;;;;;9.13;5.50;;;11.30;87.80;;;;;;20918113;28;20236;-67
2023/10/16 11:14:04;;;;;;;11.30;5.97;;;11.40;87.80;;;;;;20917663;28;20334;-67
2023/10/16 11:24:07;;;;;;;9.90;5.50;;;11.60;86.50;;;;;;20915984;28;20215;-68
2023/10/16 11:34:14;;;;;;;7.50;4.97;;;11.80;84.80;;;;;;20916103;28;20644;-66
2023/10/16 11:44:16;;;;;;;30.37;17.77;;;12.00;83.30;;;;;;20915726;28;20738;-66
2023/10/16 11:54:20;;;;;;;7.87;4.07;;;12.30;81.30;;;;;;20914413;28;20239;-69
2023/10/16 12:04:22;;;;;;;22.17;9.87;;;12.60;79.10;;;;;;20913709;28;20209;-69
2023/10/16 12:14:24;;;;;;;32.07;16.67;;;12.80;76.00;;;;;;20912526;28;20699;-68
2023/10/16 12:24:27;;;;;;;9.00;3.50;;;12.80;72.60;;;;;;20927232;28;20212;-70
2023/10/16 12:34:33;;;;;;;24.10;9.97;;;13.00;70.40;;;;;;20952646;28;20237;-69
2023/10/16 12:44:36;;;;;;;3.13;2.10;;;13.10;68.30;;;;;;20945120;28;20707;-68
2023/10/16 12:54:43;;;;;;;3.47;1.80;;;13.20;66.80;;;;;;20910524;28;20279;-69
2023/10/16 13:04:45;;;;;;;5.17;1.87;;;13.30;65.40;;;;;;20910472;28;20236;-69
2023/10/16 13:14:49;;;;;;;3.60;1.87;;;13.40;63.90;;;;;;20921645;28;20265;-68
2023/10/16 13:24:54;;;;;;;5.40;2.10;;;13.50;62.30;;;;;;20933159;28;20204;-69
2023/10/16 13:35:00;;;;;;;1.57;1.30;;;13.70;61.00;;;;;;20968361;28;20715;-69
2023/10/16 13:45:11;;;;;;;4.93;3.07;;;13.90;59.70;;;;;;20920084;28;20648;-69
2023/10/16 13:55:14;;;;;;;5.30;2.80;;;14.10;58.90;;;;;;20934232;28;20722;-74
2023/10/16 14:05:19;;;;;;;35.27;14.97;;;14.80;57.10;;;;;;20949695;28;20215;-70
2023/10/16 14:15:25;;;;;;;5.27;2.57;;;14.90;57.60;;;;;;20968545;28;20237;-67
2023/10/16 14:25:32;;;;;;;10.70;4.60;;;15.10;56.50;;;;;;20948920;28;20235;-64
2023/10/16 14:35:37;;;;;;;14.67;6.27;;;15.10;55.60;;;;;;20930611;28;20235;-69
2023/10/16 14:45:39;;;;;;;31.60;15.07;;;15.00;55.10;;;;;;20917980;28;20212;-70
2023/10/16 14:55:41;;;;;;;16.17;6.27;;;14.70;55.00;;;;;;20919406;28;20236;-70
2023/10/16 15:05:43;;;;;;;9.47;1.60;;;14.50;55.00;;;;;;20917530;28;20299;-72
2023/10/16 15:15:46;;;;;;;9.90;3.97;;;14.40;55.00;;;;;;20917683;28;20228;-70
2023/10/16 15:25:48;;;;;;;5.57;1.90;;;14.00;55.30;;;;;;20917424;28;20548;-70
2023/10/16 15:35:51;;;;;;;6.37;1.90;;;13.60;55.40;;;;;;20915842;28;20247;-70
2023/10/16 15:45:53;;;;;;;5.70;1.60;;;13.50;56.20;;;;;;20915512;28;20211;-70
2023/10/16 15:55:55;;;;;;;2.40;1.53;;;13.40;56.80;;;;;;20914800;28;20245;-70
2023/10/16 16:05:57;;;;;;;4.60;1.67;;;13.20;57.30;;;;;;20913845;28;20208;-68
2023/10/16 16:16:00;;;;;;;4.63;2.33;;;13.00;57.80;;;;;;20913637;28;20274;-73
2023/10/16 16:26:02;;;;;;;5.37;1.93;;;12.90;58.40;;;;;;20914176;28;20223;-70
2023/10/16 16:36:06;;;;;;;5.13;1.80;;;12.60;58.90;;;;;;20912266;28;20729;-70
2023/10/16 16:46:08;;;;;;;6.27;1.80;;;12.60;59.40;;;;;;20911893;28;20207;-71
2023/10/16 16:56:10;;;;;;;5.03;2.07;;;12.50;59.70;;;;;;20911873;28;20235;-77
2023/10/16 17:06:12;;;;;;;5.53;2.27;;;12.40;59.80;;;;;;20911789;28;20241;-67
2023/10/16 17:16:15;;;;;;;5.80;2.50;;;12.30;60.30;;;;;;20911069;28;20242;-66
2023/10/16 17:26:17;;;;;;;3.80;2.10;;;12.20;60.80;;;;;;20917738;28;20213;-67
2023/10/16 17:36:20;;;;;;;8.23;2.40;;;12.20;61.40;;;;;;20925794;28;20230;-73
2023/10/16 17:46:22;;;;;;;4.27;2.50;;;12.00;62.00;;;;;;20924822;28;20566;-72
2023/10/16 17:56:25;;;;;;;4.77;2.43;;;11.90;62.70;;;;;;20924585;28;20236;-71
2023/10/16 18:06:29;;;;;;;4.83;2.63;;;11.80;62.60;;;;;;20923596;28;20676;-70
2023/10/16 18:16:31;;;;;;;6.97;2.90;;;11.60;63.60;;;;;;20922882;28;20228;-71
2023/10/16 18:26:33;;;;;;;13.37;7.60;;;11.60;64.20;;;;;;20922317;28;20670;-74
2023/10/16 18:36:36;;;;;;;11.23;5.60;;;11.70;64.70;;;;;;20919945;28;20246;-71
2023/10/16 18:46:38;;;;;;;7.33;3.80;;;11.50;65.40;;;;;;20920363;28;20292;-70
2023/10/16 18:56:41;;;;;;;8.50;3.87;;;11.20;66.20;;;;;;20919349;28;20242;-70
2023/10/16 19:06:44;;;;;;;6.57;4.73;;;11.10;67.00;;;;;;20918246;28;20219;-66
2023/10/16 19:16:50;;;;;;;5.87;3.43;;;11.10;67.80;;;;;;20900849;28;20231;-69
2023/10/16 19:26:52;;;;;;;10.10;5.63;;;10.90;68.60;;;;;;20917796;28;20681;-69
2023/10/16 19:36:54;;;;;;;10.70;5.77;;;10.80;69.20;;;;;;20916489;28;20239;-68
2023/10/16 19:46:56;;;;;;;11.27;5.10;;;10.50;69.90;;;;;;20915307;28;20222;-69
2023/10/16 19:56:57;;;;;;;8.60;4.73;;;10.40;70.60;;;;;;20915209;28;20349;-69
2023/10/16 20:06:59;;;;;;;14.27;5.27;;;10.20;71.60;;;;;;20914764;28;20203;-69
2023/10/16 20:17:01;;;;;;;13.00;5.67;;;10.00;72.70;;;;;;20913583;28;20324;-70
2023/10/16 20:27:14;;;;;;;11.63;5.37;;;9.90;74.20;;;;;;20913287;28;20230;-67
2023/10/16 20:37:18;;;;;;;14.30;5.90;;;10.00;73.90;;;;;;20912374;28;20734;-69
2023/10/16 20:47:21;;;;;;;9.80;6.03;;;9.70;75.50;;;;;;20912096;28;20293;-70
2023/10/16 20:57:22;;;;;;;9.80;5.00;;;9.70;76.10;;;;;;20910568;28;20329;-70
2023/10/16 21:07:24;;;;;;;8.50;5.00;;;9.30;76.80;;;;;;20911172;28;20226;-70
2023/10/16 21:17:27;;;;;;;14.40;4.80;;;9.30;77.40;;;;;;20927387;28;20286;-71
2023/10/16 21:27:29;;;;;;;7.87;5.13;;;9.10;78.10;;;;;;20926980;28;20300;-71
2023/10/16 21:37:31;;;;;;;8.83;4.67;;;9.10;79.10;;;;;;20926047;28;20245;-70
2023/10/16 21:47:36;;;;;;;6.80;4.70;;;9.10;79.70;;;;;;20925203;28;20568;-70
2023/10/16 21:57:38;;;;;;;6.13;4.50;;;9.00;80.10;;;;;;20920716;28;20607;-70
2023/10/16 22:07:40;;;;;;;7.10;4.17;;;8.70;80.50;;;;;;20918915;28;20204;-70
2023/10/16 22:17:42;;;;;;;7.60;4.80;;;8.50;81.50;;;;;;20917575;28;20702;-69
2023/10/16 22:27:44;;;;;;;7.97;4.73;;;8.50;82.10;;;;;;20917709;28;20227;-71
2023/10/16 22:37:49;;;;;;;9.77;4.63;;;8.30;82.40;;;;;;20916808;28;20242;-70
2023/10/16 22:47:51;;;;;;;9.87;5.00;;;8.10;83.30;;;;;;20916139;28;20208;-71
2023/10/16 22:57:53;;;;;;;7.20;3.97;;;8.10;83.90;;;;;;20882945;28;1033778;-71
2023/10/16 23:07:55;;;;;;;9.83;4.67;;;8.10;84.50;;;;;;20918955;28;20216;-70
2023/10/16 23:17:57;;;;;;;7.53;4.50;;;8.10;84.80;;;;;;20919051;28;20235;-70
2023/10/16 23:27:59;;;;;;;8.27;4.47;;;7.90;84.70;;;;;;20988440;28;20294;-69
2023/10/16 23:38:01;;;;;;;7.17;4.30;;;7.90;85.30;;;;;;20999407;28;20239;-69
2023/10/16 23:48:19;;;;;;;7.67;4.50;;;7.90;85.20;;;;;;20998582;28;20650;-69
2023/10/16 23:58:25;;;;;;;8.87;4.63;;;7.70;85.90;;;;;;20997321;28;20292;-69
